Time;durP1;ratioP1;P1;durP2;ratioP2;P2;SDS_P1;SDS_P2;PMS_P1;PMS_P2;Temp;Humidity;BMP_temperature;BMP_pressure;BME280_temperature;BME280_humidity;BME280_pressure;Samples;Min_cycle;Max_cycle;Signal;HPM_P1;HPM_P2
2023/09/12 00:02:40;;;;;;;8.93;4.90;;;;;;;22.75;92.29;100264.88;8377366;28;20041;-65
2023/09/12 00:06:40;;;;;;;6.60;4.78;;;;;;;22.69;92.91;100249.25;8371239;28;20041;-65
2023/09/12 00:10:41;;;;;;;8.75;4.53;;;;;;;22.67;93.05;100243.13;8373807;28;20525;-65
2023/09/12 00:14:41;;;;;;;9.15;5.10;;;;;;;22.63;93.51;100239.13;8378065;28;20110;-66
2023/09/12 00:18:42;;;;;;;7.82;5.30;;;;;;;22.49;94.84;100234.78;8375774;28;20387;-65
2023/09/12 00:22:42;;;;;;;8.63;5.75;;;;;;;22.16;97.61;100234.16;8379416;28;20055;-61
2023/09/12 00:26:43;;;;;;;10.13;5.63;;;;;;;22.11;98.62;100230.41;8376286;28;20542;-62
2023/09/12 00:30:43;;;;;;;9.00;6.00;;;;;;;22.14;98.49;100228.03;8382289;28;20052;-69
2023/09/12 00:34:44;;;;;;;8.88;5.25;;;;;;;22.04;99.13;100230.44;8379302;28;20048;-69
2023/09/12 00:38:44;;;;;;;11.55;5.63;;;;;;;21.98;100.00;100234.06;8376611;28;20068;-69
2023/09/12 00:42:45;;;;;;;10.70;6.00;;;;;;;21.92;100.00;100229.44;8375092;28;20074;-60
2023/09/12 00:46:48;;;;;;;9.27;5.28;;;;;;;21.78;100.00;100225.09;8375573;28;20498;-60
2023/09/12 00:50:49;;;;;;;11.77;5.97;;;;;;;21.85;100.00;100239.66;8376369;28;20041;-59
2023/09/12 00:54:50;;;;;;;11.23;6.13;;;;;;;21.87;100.00;100226.53;8376713;28;20040;-59
2023/09/12 00:58:51;;;;;;;10.98;6.15;;;;;;;21.77;100.00;100217.88;8374884;28;20570;-60
2023/09/12 01:02:53;;;;;;;12.48;6.68;;;;;;;21.78;100.00;100221.50;8379325;28;20036;-60
2023/09/12 01:06:54;;;;;;;9.43;5.90;;;;;;;21.77;100.00;100223.38;8376301;28;20117;-62
2023/09/12 01:10:58;;;;;;;9.95;6.15;;;;;;;21.61;100.00;100223.88;8371414;28;20036;-61
2023/09/12 01:14:58;;;;;;;11.97;6.50;;;;;;;21.43;100.00;100218.22;8370311;28;20486;-60
2023/09/12 01:18:59;;;;;;;11.07;6.70;;;;;;;21.38;100.00;100220.81;8376347;28;20649;-61
2023/09/12 01:27:34;;;;;;;11.80;7.55;;;;;;;21.36;100.00;100225.69;8336673;27;20480;-61
2023/09/12 01:31:37;;;;;;;16.77;8.10;;;;;;;21.41;100.00;100225.88;8335175;28;20538;-59
2023/09/12 01:35:37;;;;;;;13.45;7.45;;;;;;;21.50;100.00;100234.72;8334885;28;20042;-59
2023/09/12 01:39:38;;;;;;;13.18;7.70;;;;;;;21.58;100.00;100226.19;8333208;28;20068;-59
2023/09/12 01:43:41;;;;;;;14.88;7.90;;;;;;;21.65;100.00;100227.03;8334713;28;20483;-68
2023/09/12 01:47:42;;;;;;;13.60;8.50;;;;;;;21.73;100.00;100208.34;8335972;28;20052;-68
2023/09/12 01:51:42;;;;;;;13.73;8.15;;;;;;;21.77;100.00;100212.38;8336371;28;20037;-68
2023/09/12 01:55:44;;;;;;;14.43;8.27;;;;;;;21.72;100.00;100214.06;8333459;28;20095;-66
2023/09/12 01:59:47;;;;;;;16.27;8.50;;;;;;;21.50;100.00;100223.72;8329706;28;20535;-68
2023/09/12 02:03:48;;;;;;;18.27;9.57;;;;;;;21.46;100.00;100222.47;8332690;28;20034;-69
2023/09/12 02:07:49;;;;;;;18.90;9.77;;;;;;;21.59;100.00;100239.75;8332275;28;20052;-68
2023/09/12 02:11:51;;;;;;;16.73;9.55;;;;;;;21.54;100.00;100234.06;8329058;28;20473;-69
2023/09/12 02:15:58;;;;;;;21.75;10.10;;;;;;;21.57;100.00;100230.88;8329685;28;20052;-69
2023/09/12 02:19:59;;;;;;;22.00;10.60;;;;;;;21.56;100.00;100226.41;8329927;28;20069;-69
2023/09/12 02:23:59;;;;;;;19.35;11.05;;;;;;;21.63;100.00;100218.16;8334342;28;20044;-68
2023/09/12 02:28:00;;;;;;;21.33;11.43;;;;;;;21.65;100.00;100211.34;8335023;28;20039;-68
2023/09/12 02:32:00;;;;;;;22.20;12.15;;;;;;;21.68;100.00;100205.41;8331122;28;20029;-69
2023/09/12 02:36:01;;;;;;;25.00;12.68;;;;;;;21.68;100.00;100210.09;8327189;28;20037;-65
2023/09/12 02:40:05;;;;;;;30.88;14.20;;;;;;;21.66;100.00;100199.31;8309329;28;20057;-68
2023/09/12 02:44:05;;;;;;;21.98;11.85;;;;;;;21.60;100.00;100200.19;8312046;28;20042;-69
2023/09/12 02:48:06;;;;;;;22.88;12.85;;;;;;;21.57;100.00;100208.00;8310272;28;20041;-67
2023/09/12 02:52:06;;;;;;;24.38;13.75;;;;;;;21.40;100.00;100223.34;8311958;28;20042;-61
2023/09/12 02:56:07;;;;;;;24.00;13.15;;;;;;;21.34;100.00;100219.53;8309542;28;20116;-61
2023/09/12 03:00:09;;;;;;;25.60;13.50;;;;;;;21.26;100.00;100206.03;8310547;28;20120;-61
2023/09/12 03:04:09;;;;;;;31.20;13.13;;;;;;;21.23;100.00;100201.81;8321115;28;20452;-61
2023/09/12 03:08:10;;;;;;;25.75;13.38;;;;;;;21.15;100.00;100198.44;8320356;28;20045;-61
2023/09/12 03:12:11;;;;;;;23.27;13.50;;;;;;;21.09;100.00;100197.41;8306442;28;20503;-62
2023/09/12 03:16:13;;;;;;;21.42;13.70;;;;;;;20.96;100.00;100193.88;8306253;28;20422;-61
2023/09/12 03:20:14;;;;;;;25.67;14.57;;;;;;;20.93;100.00;100192.38;8305458;28;20602;-61
2023/09/12 03:24:18;;;;;;;35.45;14.75;;;;;;;21.00;100.00;100201.47;8309429;28;20433;-61
2023/09/12 03:28:18;;;;;;;31.08;13.95;;;;;;;20.95;100.00;100186.69;8308476;28;20040;-60
2023/09/12 03:32:19;;;;;;;26.38;14.95;;;;;;;20.80;100.00;100188.78;8307117;28;20038;-61
2023/09/12 03:36:19;;;;;;;26.27;14.57;;;;;;;20.85;100.00;100192.59;8311443;28;20038;-61
2023/09/12 03:40:20;;;;;;;31.98;15.80;;;;;;;21.02;100.00;100187.50;8306757;28;20067;-61
2023/09/12 03:44:21;;;;;;;29.85;16.17;;;;;;;21.09;100.00;100178.19;8309029;28;20049;-61
2023/09/12 03:48:22;;;;;;;28.90;15.00;;;;;;;21.28;100.00;100182.75;8308227;28;20060;-60
2023/09/12 03:52:22;;;;;;;26.60;14.70;;;;;;;21.38;100.00;100182.31;8281809;28;20447;-61
2023/09/12 03:56:23;;;;;;;32.85;16.05;;;;;;;21.41;100.00;100181.88;8278639;28;20046;-61
2023/09/12 04:00:24;;;;;;;32.03;15.82;;;;;;;21.50;100.00;100169.53;8274421;28;20048;-60
2023/09/12 04:04:24;;;;;;;26.85;15.05;;;;;;;21.58;100.00;100183.03;8277475;28;20518;-63
2023/09/12 04:08:25;;;;;;;30.85;16.17;;;;;;;21.52;100.00;100175.66;8275475;28;20046;-63
2023/09/12 04:12:25;;;;;;;26.90;15.95;;;;;;;21.58;100.00;100161.03;8275054;28;20038;-67
2023/09/12 04:16:26;;;;;;;27.13;14.20;;;;;;;21.55;100.00;100144.94;8276975;28;20045;-64
2023/09/12 04:20:26;;;;;;;31.33;15.35;;;;;;;21.48;100.00;100133.16;8276170;28;20121;-63
2023/09/12 04:24:27;;;;;;;29.23;15.55;;;;;;;21.48;100.00;100111.16;8292918;28;20410;-59
2023/09/12 04:28:27;;;;;;;29.05;16.17;;;;;;;21.46;100.00;100096.75;8305386;28;20188;-60
2023/09/12 04:32:28;;;;;;;34.92;17.08;;;;;;;21.46;100.00;100124.25;8305947;28;20033;-59
2023/09/12 04:36:29;;;;;;;29.42;16.67;;;;;;;21.42;100.00;100133.19;8306666;28;20042;-60
2023/09/12 04:40:29;;;;;;;32.13;17.33;;;;;;;21.46;100.00;100140.78;8305902;28;20116;-58
2023/09/12 04:44:35;;;;;;;32.00;17.80;;;;;;;21.46;100.00;100150.94;8306634;28;20449;-59
2023/09/12 04:48:37;;;;;;;39.03;18.95;;;;;;;21.48;100.00;100159.81;8302902;28;20060;-58
2023/09/12 04:52:38;;;;;;;38.13;19.05;;;;;;;21.42;100.00;100161.53;8307826;28;20049;-58
2023/09/12 04:56:39;;;;;;;38.67;19.73;;;;;;;21.42;100.00;100177.19;8306649;28;20081;-58
2023/09/12 05:00:40;;;;;;;32.65;18.25;;;;;;;21.41;100.00;100187.38;8306074;28;20049;-58
2023/09/12 05:04:40;;;;;;;37.17;20.23;;;;;;;21.39;100.00;100205.97;8304792;28;20037;-59
2023/09/12 05:08:41;;;;;;;38.25;19.33;;;;;;;21.36;100.00;100222.94;8305805;28;20096;-59
2023/09/12 05:12:41;;;;;;;40.72;19.77;;;;;;;21.37;100.00;100241.09;8305797;28;20080;-58
2023/09/12 05:16:42;;;;;;;42.58;21.30;;;;;;;21.40;100.00;100243.41;8302359;28;20065;-59
2023/09/12 05:20:42;;;;;;;41.75;21.25;;;;;;;21.52;100.00;100233.44;8306721;28;20476;-59
2023/09/12 05:24:43;;;;;;;40.55;22.10;;;;;;;21.59;100.00;100217.72;8323079;28;20387;-60
2023/09/12 05:28:44;;;;;;;45.97;22.63;;;;;;;21.64;100.00;100217.94;8305115;28;20073;-60
2023/09/12 05:32:44;;;;;;;40.60;20.33;;;;;;;21.71;100.00;100206.91;8286922;28;20393;-68
2023/09/12 05:36:45;;;;;;;45.75;20.00;;;;;;;21.76;100.00;100205.19;8285912;28;20041;-68
2023/09/12 05:40:46;;;;;;;40.03;19.50;;;;;;;21.92;100.00;100193.66;8304684;28;20100;-65
2023/09/12 05:44:49;;;;;;;37.35;18.52;;;;;;;21.89;100.00;100185.84;8303324;28;20618;-66
2023/09/12 05:48:50;;;;;;;37.00;18.65;;;;;;;22.00;100.00;100195.31;8296299;28;20562;-66
2023/09/12 05:52:51;;;;;;;31.80;16.67;;;;;;;22.06;100.00;100208.19;8306362;28;20089;-65
2023/09/12 05:56:53;;;;;;;30.25;16.60;;;;;;;22.21;100.00;100217.84;8284956;28;20037;-64
2023/09/12 06:00:53;;;;;;;37.58;19.88;;;;;;;22.50;100.00;100232.88;8299914;28;20460;-64
2023/09/12 06:04:54;;;;;;;35.75;19.40;;;;;;;22.43;100.00;100234.81;8299345;28;20042;-63
2023/09/12 06:08:55;;;;;;;34.63;18.25;;;;;;;22.40;100.00;100233.38;8304221;28;20084;-65
2023/09/12 06:12:56;;;;;;;31.92;19.13;;;;;;;22.28;100.00;100232.41;8310963;28;20053;-65
2023/09/12 06:16:56;;;;;;;36.60;19.00;;;;;;;22.15;100.00;100228.88;8315354;28;20514;-67
2023/09/12 06:20:58;;;;;;;38.60;19.13;;;;;;;22.20;100.00;100235.41;8314038;28;20033;-66
2023/09/12 06:24:59;;;;;;;34.80;18.88;;;;;;;22.27;100.00;100233.47;8313357;28;20037;-60
2023/09/12 06:28:59;;;;;;;41.47;19.48;;;;;;;22.35;100.00;100235.94;8313928;28;20133;-59
2023/09/12 06:33:00;;;;;;;37.60;19.60;;;;;;;22.58;100.00;100222.44;8309110;28;20084;-60
2023/09/12 06:37:00;;;;;;;40.58;20.92;;;;;;;22.75;100.00;100220.78;8306259;28;20041;-59
2023/09/12 06:41:01;;;;;;;37.28;19.95;;;;;;;23.00;100.00;100224.34;8293415;28;20115;-59
2023/09/12 06:45:01;;;;;;;34.53;19.15;;;;;;;23.30;100.00;100218.97;8312271;28;20074;-61
2023/09/12 06:49:03;;;;;;;35.70;19.20;;;;;;;23.42;100.00;100221.81;8309078;28;20061;-60
2023/09/12 06:53:06;;;;;;;34.92;18.23;;;;;;;23.47;100.00;100214.50;8312080;28;20038;-62
2023/09/12 06:57:06;;;;;;;35.72;18.58;;;;;;;23.32;100.00;100221.50;8310406;28;20037;-63
2023/09/12 07:01:07;;;;;;;33.17;18.58;;;;;;;23.41;100.00;100214.56;8305906;28;20522;-63
2023/09/12 07:05:08;;;;;;;34.42;18.23;;;;;;;23.67;99.13;100208.75;8301984;28;20064;-63
2023/09/12 07:09:08;;;;;;;32.72;19.17;;;;;;;23.74;97.97;100209.47;8275651;28;20043;-63
2023/09/12 07:13:09;;;;;;;28.40;17.17;;;;;;;23.72;95.51;100211.66;8274306;28;20060;-63
2023/09/12 07:17:09;;;;;;;29.33;16.40;;;;;;;23.86;94.51;100210.38;8276263;28;20407;-63
2023/09/12 07:21:12;;;;;;;26.65;16.23;;;;;;;23.92;94.10;100196.50;8278948;28;20126;-63
2023/09/12 07:25:14;;;;;;;29.00;17.35;;;;;;;24.05;93.75;100204.59;8300704;28;20410;-63
2023/09/12 07:29:14;;;;;;;32.92;16.48;;;;;;;24.21;92.03;100205.88;8309675;28;20396;-63
2023/09/12 07:33:15;;;;;;;25.77;14.70;;;;;;;24.44;89.64;100200.38;8306719;28;20038;-63
2023/09/12 07:37:15;;;;;;;19.63;12.05;;;;;;;24.47;87.00;100199.91;8310324;28;20092;-63
2023/09/12 07:41:15;;;;;;;18.95;11.45;;;;;;;24.63;87.65;100199.19;8319199;28;20041;-63
2023/09/12 07:45:16;;;;;;;20.08;11.90;;;;;;;24.86;85.30;100204.78;8305351;28;20038;-63
2023/09/12 07:49:17;;;;;;;19.98;10.20;;;;;;;24.98;85.74;100213.91;8310117;28;20080;-63
2023/09/12 07:53:17;;;;;;;12.93;9.60;;;;;;;25.33;84.38;100214.72;8307097;28;20470;-63
2023/09/12 07:57:18;;;;;;;16.08;10.07;;;;;;;25.33;83.49;100206.44;8308711;28;20582;-63
2023/09/12 08:01:18;;;;;;;21.45;10.98;;;;;;;25.44;83.00;100211.13;8306428;28;20034;-63
2023/09/12 08:05:19;;;;;;;14.10;9.48;;;;;;;25.36;82.87;100211.47;8309659;28;20065;-60
2023/09/12 08:09:19;;;;;;;15.30;9.98;;;;;;;25.55;82.41;100213.00;8307977;28;20120;-60
2023/09/12 08:13:21;;;;;;;13.20;8.75;;;;;;;25.66;81.09;100216.81;8307633;28;20072;-60
2023/09/12 08:17:22;;;;;;;15.48;8.32;;;;;;;25.78;80.86;100221.25;8307252;28;20042;-60
2023/09/12 08:21:23;;;;;;;9.00;7.18;;;;;;;26.15;78.32;100222.56;8308573;28;20043;-60
2023/09/12 08:25:24;;;;;;;12.30;6.68;;;;;;;26.17;77.95;100231.44;8306513;28;20046;-61
2023/09/12 08:29:25;;;;;;;9.90;6.80;;;;;;;26.04;78.11;100237.28;8283828;28;20073;-60
2023/09/12 08:33:25;;;;;;;10.30;6.63;;;;;;;26.18;78.04;100244.22;8271013;28;20084;-60
2023/09/12 08:37:26;;;;;;;7.85;6.65;;;;;;;26.12;78.05;100244.38;8271419;28;20042;-60
2023/09/12 08:41:27;;;;;;;8.45;6.30;;;;;;;26.20;78.47;100253.13;8267768;28;20039;-60
2023/09/12 08:45:27;;;;;;;10.45;6.78;;;;;;;26.25;78.26;100264.31;8273193;28;20065;-66
2023/09/12 08:49:29;;;;;;;7.18;5.78;;;;;;;26.37;77.78;100270.63;8273190;28;20038;-65
2023/09/12 08:53:30;;;;;;;12.38;9.73;;;;;;;26.07;81.06;100272.81;8269886;28;20088;-64
2023/09/12 08:57:33;;;;;;;22.50;12.30;;;;;;;26.20;84.02;100272.53;8270829;28;20046;-63
2023/09/12 09:01:34;;;;;;;20.52;11.02;;;;;;;26.62;84.69;100285.00;8293555;28;20046;-62
2023/09/12 09:05:36;;;;;;;18.85;11.55;;;;;;;26.55;84.05;100289.84;8304243;28;20065;-62
2023/09/12 09:09:36;;;;;;;18.70;11.77;;;;;;;26.02;84.34;100282.97;8301982;28;20050;-63
2023/09/12 09:13:37;;;;;;;16.02;10.93;;;;;;;26.27;85.38;100286.25;8305979;28;20484;-62
2023/09/12 09:17:37;;;;;;;13.13;9.98;;;;;;;26.38;84.07;100277.84;8303776;28;20075;-65
2023/09/12 09:21:40;;;;;;;12.20;9.95;;;;;;;26.55;80.96;100281.53;8303957;28;20069;-65
2023/09/12 09:25:45;;;;;;;13.37;9.73;;;;;;;26.80;80.77;100281.13;8305081;28;20045;-60
2023/09/12 09:29:47;;;;;;;13.07;9.63;;;;;;;26.80;80.16;100292.22;8304091;28;20049;-60
2023/09/12 09:33:51;;;;;;;12.93;10.18;;;;;;;26.70;79.79;100297.63;8299861;28;20037;-59
2023/09/12 09:37:52;;;;;;;11.52;8.98;;;;;;;26.99;79.42;100288.13;8306962;28;20068;-65
2023/09/12 09:41:55;;;;;;;12.45;8.35;;;;;;;28.49;71.83;100286.63;8302617;28;20406;-66
2023/09/12 09:45:56;;;;;;;9.43;6.75;;;;;;;28.71;70.04;100279.03;8304322;28;20044;-59
2023/09/12 09:49:59;;;;;;;8.88;6.70;;;;;;;29.35;69.04;100265.91;8307620;28;20117;-59
2023/09/12 09:54:00;;;;;;;8.77;7.15;;;;;;;30.51;66.20;100272.84;8306172;28;20053;-58
2023/09/12 09:58:01;;;;;;;9.93;7.05;;;;;;;30.30;65.16;100271.97;8310783;28;20033;-63
2023/09/12 10:02:08;;;;;;;10.98;7.57;;;;;;;30.54;64.66;100266.69;8313442;28;20063;-62
2023/09/12 10:06:10;;;;;;;9.63;7.53;;;;;;;30.32;65.07;100262.22;8310191;28;20038;-63
2023/09/12 10:10:11;;;;;;;8.80;6.80;;;;;;;30.06;65.18;100262.38;8312818;28;20041;-63
2023/09/12 10:14:15;;;;;;;10.85;7.18;;;;;;;29.73;66.16;100268.41;8304495;28;20124;-62
2023/09/12 10:18:18;;;;;;;;;;;;;;;29.32;68.32;100274.81;8310451;28;20601;-59
2023/09/12 10:22:25;;;;;;;10.18;7.35;;;;;;;29.19;68.29;100259.41;8309469;28;19917;-58
2023/09/12 10:26:26;;;;;;;9.57;7.93;;;;;;;28.78;69.68;100257.38;8306389;28;20041;-62
2023/09/12 10:30:27;;;;;;;12.50;8.23;;;;;;;29.18;68.18;100246.56;8308776;28;20046;-62
2023/09/12 10:34:31;;;;;;;8.57;5.97;;;;;;;29.93;67.17;100255.38;8312326;28;20429;-63
2023/09/12 10:38:33;;;;;;;10.45;6.45;;;;;;;29.83;65.41;100255.34;8306289;28;20541;-62
2023/09/12 10:42:34;;;;;;;8.63;5.72;;;;;;;30.30;64.14;100263.59;8306729;28;20335;-62
2023/09/12 10:46:39;;;;;;;10.07;6.20;;;;;;;30.84;62.69;100258.38;8311607;28;20045;-60
2023/09/12 10:50:40;;;;;;;9.90;5.85;;;;;;;30.71;62.94;100250.53;8310589;28;20475;-60
2023/09/12 10:54:40;;;;;;;8.13;6.32;;;;;;;31.87;61.03;100252.09;8306722;28;20042;-59
2023/09/12 10:59:04;;;;;;;7.18;5.43;;;;;;;32.06;60.11;100269.88;8306580;28;20156;-58
2023/09/12 11:12:32;;;;;;;7.80;5.22;;;;;;;32.61;58.64;100261.19;8407148;27;20460;-66
2023/09/12 11:16:34;;;;;;;6.47;4.53;;;;;;;32.67;58.47;100257.22;8416757;28;20088;-60
2023/09/12 11:20:59;;;;;;;8.73;5.13;;;;;;;32.51;57.92;100272.47;8417391;28;20036;-59
2023/09/12 11:25:05;;;;;;;8.27;5.55;;;;;;;32.26;57.46;100264.16;8415061;28;20040;-58
2023/09/12 11:29:13;;;;;;;7.43;5.35;;;;;;;32.05;60.53;100260.66;8417258;28;20040;-58
2023/09/12 11:33:14;;;;;;;8.48;5.35;;;;;;;32.11;59.98;100267.06;8414720;28;20056;-59
2023/09/12 11:37:24;;;;;;;8.55;5.55;;;;;;;32.22;59.67;100257.47;8410300;28;20059;-60
2023/09/12 11:41:40;;;;;;;10.98;5.43;;;;;;;31.44;60.19;100255.56;8415403;28;20047;-66
2023/09/12 11:45:43;;;;;;;7.38;4.75;;;;;;;31.80;59.18;100251.50;8410029;28;20556;-65
2023/09/12 11:49:44;;;;;;;11.45;6.93;;;;;;;32.39;58.59;100260.78;8416636;28;20323;-60
2023/09/12 11:53:49;;;;;;;8.63;6.30;;;;;;;32.72;57.86;100251.56;8416729;28;20426;-60
2023/09/12 11:57:50;;;;;;;11.40;6.32;;;;;;;32.44;57.67;100255.13;8418596;28;20040;-63
2023/09/12 12:01:50;;;;;;;9.13;6.30;;;;;;;33.01;57.71;100254.44;8409423;28;20056;-63
2023/09/12 12:05:51;;;;;;;9.50;6.63;;;;;;;32.44;57.90;100255.13;8418189;28;20139;-64
2023/09/12 12:09:52;;;;;;;11.15;8.35;;;;;;;30.30;62.75;100244.91;8412971;28;20170;-66
2023/09/12 12:13:52;;;;;;;12.10;6.80;;;;;;;30.22;64.35;100242.66;8415305;28;20371;-67
2023/09/12 12:17:55;;;;;;;10.75;7.80;;;;;;;29.45;65.51;100241.72;8415271;28;20814;-67
2023/09/12 12:21:56;;;;;;;10.27;8.23;;;;;;;28.92;67.32;100227.16;8399654;28;20521;-65
2023/09/12 12:25:56;;;;;;;10.43;7.68;;;;;;;28.64;68.56;100229.16;8392394;28;20279;-66
2023/09/12 12:29:57;;;;;;;9.63;7.10;;;;;;;28.62;68.87;100230.53;8392688;28;20040;-67
2023/09/12 12:33:59;;;;;;;11.57;7.60;;;;;;;28.44;69.49;100230.88;8393068;28;20383;-67
2023/09/12 12:38:00;;;;;;;10.95;7.25;;;;;;;28.78;68.19;100235.09;8391612;28;20086;-66
2023/09/12 12:42:03;;;;;;;8.38;6.28;;;;;;;28.68;67.54;100235.03;8392577;28;20518;-67
2023/09/12 12:46:03;;;;;;;9.98;6.40;;;;;;;28.58;67.35;100230.22;8390923;28;20032;-66
2023/09/12 12:50:12;;;;;;;9.90;5.80;;;;;;;28.70;68.36;100221.69;8393016;28;20090;-66
2023/09/12 12:54:13;;;;;;;9.10;5.50;;;;;;;28.76;68.84;100228.13;8391729;28;20414;-67
2023/09/12 12:58:13;;;;;;;7.35;5.72;;;;;;;28.69;69.94;100225.56;8387065;28;20036;-66
2023/09/12 13:02:15;;;;;;;14.65;6.22;;;;;;;28.43;69.46;100223.66;8390472;28;20559;-66
2023/09/12 13:06:17;;;;;;;8.25;5.82;;;;;;;28.32;70.33;100213.50;8390671;28;20536;-67
2023/09/12 13:10:18;;;;;;;11.65;6.93;;;;;;;28.19;70.85;100200.03;8390527;28;20109;-60
2023/09/12 13:14:19;;;;;;;8.02;7.10;;;;;;;28.28;70.30;100201.25;8391085;28;20033;-59
2023/09/12 13:18:19;;;;;;;9.18;6.65;;;;;;;28.22;70.90;100200.38;8390040;28;20037;-61
2023/09/12 13:22:20;;;;;;;10.02;6.90;;;;;;;28.16;70.75;100197.78;8389904;28;20127;-60
2023/09/12 13:26:20;;;;;;;10.57;6.63;;;;;;;28.04;70.11;100194.31;8389148;28;20039;-60
2023/09/12 13:30:21;;;;;;;11.05;6.68;;;;;;;28.00;70.29;100185.66;8389771;28;20047;-60
2023/09/12 13:34:22;;;;;;;10.77;6.25;;;;;;;28.60;68.85;100177.91;8389056;28;20074;-61
2023/09/12 13:38:23;;;;;;;9.50;6.38;;;;;;;28.78;68.27;100173.88;8389329;28;20043;-60
2023/09/12 13:42:23;;;;;;;9.25;5.60;;;;;;;28.81;67.83;100178.91;8389411;28;20033;-60
2023/09/12 13:46:24;;;;;;;8.73;5.53;;;;;;;28.92;66.80;100169.53;8389100;28;20530;-62
2023/09/12 13:50:25;;;;;;;10.07;6.47;;;;;;;28.71;66.92;100173.28;8388467;28;20410;-61
2023/09/12 13:54:26;;;;;;;8.90;5.47;;;;;;;28.59;66.54;100167.06;8389136;28;20048;-61
2023/09/12 13:58:26;;;;;;;10.40;5.53;;;;;;;28.51;67.51;100151.69;8387994;28;20040;-61
2023/09/12 14:02:27;;;;;;;8.73;6.15;;;;;;;28.49;67.90;100162.25;8388527;28;20059;-61
2023/09/12 14:06:27;;;;;;;11.52;6.28;;;;;;;28.71;66.66;100164.94;8388344;28;20040;-60
2023/09/12 14:10:28;;;;;;;9.25;6.00;;;;;;;28.52;66.92;100152.53;8387869;28;20040;-61
2023/09/12 14:14:28;;;;;;;8.48;5.68;;;;;;;28.42;67.33;100150.47;8388249;28;20429;-61
2023/09/12 14:18:29;;;;;;;7.65;5.50;;;;;;;28.37;67.65;100144.88;8388592;28;20036;-66
2023/09/12 14:22:29;;;;;;;8.20;5.72;;;;;;;28.42;67.16;100152.44;8386825;28;20039;-66
2023/09/12 14:26:30;;;;;;;10.02;6.10;;;;;;;28.39;67.95;100152.97;8386942;28;20033;-66
2023/09/12 14:30:44;;;;;;;10.30;5.53;;;;;;;28.51;68.06;100150.84;8397714;28;20036;-63
2023/09/12 14:34:45;;;;;;;8.43;5.60;;;;;;;28.43;68.11;100142.97;8387919;28;20465;-63
2023/09/12 14:38:45;;;;;;;7.93;5.45;;;;;;;28.43;68.48;100148.53;8387772;28;20032;-63
2023/09/12 14:42:46;;;;;;;9.02;5.88;;;;;;;28.36;68.74;100147.94;8386956;28;20403;-64
2023/09/12 14:46:47;;;;;;;7.80;5.10;;;;;;;28.30;69.17;100144.25;8386964;28;20134;-63
2023/09/12 14:50:49;;;;;;;7.22;5.50;;;;;;;28.38;69.46;100129.00;8385890;28;20136;-63
2023/09/12 14:54:49;;;;;;;8.85;6.00;;;;;;;28.41;69.07;100131.25;8386422;28;20057;-64
2023/09/12 14:58:50;;;;;;;9.60;6.07;;;;;;;28.39;68.59;100123.19;8383788;28;20571;-64
2023/09/12 15:02:50;;;;;;;9.43;6.35;;;;;;;28.46;68.09;100125.78;8385515;28;20294;-62
2023/09/12 15:06:50;;;;;;;11.07;6.38;;;;;;;28.47;68.46;100110.75;8385143;28;20082;-64
2023/09/12 15:10:51;;;;;;;7.72;5.82;;;;;;;28.54;67.89;100108.59;8383340;28;20071;-62
2023/09/12 15:14:51;;;;;;;8.25;6.38;;;;;;;28.42;67.89;100105.16;8384527;28;20155;-63
2023/09/12 15:18:52;;;;;;;13.32;7.03;;;;;;;28.35;67.58;100110.94;8365411;28;20043;-62
2023/09/12 15:22:53;;;;;;;10.15;6.25;;;;;;;28.40;67.59;100087.88;8382327;28;20111;-62
2023/09/12 15:26:54;;;;;;;11.40;7.18;;;;;;;28.41;67.25;100104.31;8383900;28;20055;-62
2023/09/12 15:30:54;;;;;;;9.00;6.97;;;;;;;28.55;67.94;100108.31;8375029;28;20172;-62
2023/09/12 15:34:55;;;;;;;9.43;7.30;;;;;;;28.52;67.28;100105.25;8385470;28;20418;-62
2023/09/12 15:38:56;;;;;;;13.38;6.93;;;;;;;28.31;67.30;100106.16;8384136;28;20350;-62
2023/09/12 15:42:57;;;;;;;12.65;6.82;;;;;;;28.21;68.21;100100.53;8383528;28;20063;-62
2023/09/12 15:46:58;;;;;;;9.05;5.88;;;;;;;28.10;68.58;100109.88;8386418;28;20041;-62
2023/09/12 15:50:58;;;;;;;8.80;5.82;;;;;;;27.97;68.88;100101.97;8387010;28;20036;-59
2023/09/12 15:54:59;;;;;;;11.57;5.90;;;;;;;28.04;69.10;100100.66;8389560;28;20052;-60
2023/09/12 15:58:59;;;;;;;6.93;5.07;;;;;;;27.90;69.67;100098.59;8390370;28;20033;-61
2023/09/12 16:03:01;;;;;;;8.23;4.43;;;;;;;27.70;70.34;100084.44;8392052;28;20086;-61
2023/09/12 16:07:01;;;;;;;8.35;4.93;;;;;;;27.56;70.91;100080.38;8391122;28;20124;-61
2023/09/12 16:11:01;;;;;;;8.70;5.30;;;;;;;27.46;71.16;100094.16;8389300;28;20081;-61
2023/09/12 16:15:02;;;;;;;8.02;5.38;;;;;;;27.35;71.16;100100.72;8390777;28;20044;-61
2023/09/12 16:19:06;;;;;;;5.65;4.45;;;;;;;27.33;71.83;100108.47;8391568;28;20036;-61
2023/09/12 16:23:07;;;;;;;5.88;4.63;;;;;;;27.24;71.46;100110.00;8390090;28;20056;-61
2023/09/12 16:27:07;;;;;;;6.53;4.53;;;;;;;27.21;71.88;100110.50;8408520;28;20495;-61
2023/09/12 16:31:08;;;;;;;7.93;4.93;;;;;;;27.09;72.54;100118.13;8390446;28;20043;-62
2023/09/12 16:35:08;;;;;;;6.68;4.93;;;;;;;26.99;72.85;100115.22;8391265;28;20087;-61
2023/09/12 16:39:09;;;;;;;5.35;4.60;;;;;;;26.96;73.14;100119.34;8389551;28;20041;-66
2023/09/12 16:43:09;;;;;;;10.15;4.28;;;;;;;26.92;72.67;100125.66;8379566;28;20048;-67
2023/09/12 16:47:11;;;;;;;6.03;3.70;;;;;;;26.78;72.91;100106.59;8381993;28;20044;-67
2023/09/12 16:51:11;;;;;;;6.28;3.95;;;;;;;26.70;73.26;100123.69;8379092;28;20052;-66
2023/09/12 16:55:12;;;;;;;5.90;3.40;;;;;;;26.65;73.55;100123.59;8390504;28;20032;-67
2023/09/12 16:59:13;;;;;;;4.82;3.53;;;;;;;26.56;74.52;100119.56;8389055;28;20097;-62
2023/09/12 17:03:13;;;;;;;8.00;3.97;;;;;;;26.49;74.82;100138.31;8387735;28;20044;-62
2023/09/12 17:07:15;;;;;;;4.80;4.10;;;;;;;26.50;74.51;100159.38;8385779;28;20097;-62
2023/09/12 17:11:15;;;;;;;5.35;4.18;;;;;;;26.46;75.29;100147.13;8386323;28;20036;-62
2023/09/12 17:15:18;;;;;;;4.30;3.88;;;;;;;26.41;75.73;100130.41;8387108;28;20118;-61
2023/09/12 17:19:20;;;;;;;4.72;4.22;;;;;;;26.42;76.12;100140.41;8388009;28;20099;-61
2023/09/12 17:23:20;;;;;;;5.80;4.05;;;;;;;26.30;76.50;100150.75;8387265;28;20178;-61
2023/09/12 17:27:20;;;;;;;4.78;4.25;;;;;;;26.24;77.19;100159.22;8386974;28;20037;-61
2023/09/12 17:31:21;;;;;;;10.77;4.68;;;;;;;26.16;78.15;100168.78;8386867;28;20049;-63
2023/09/12 17:35:21;;;;;;;8.23;5.40;;;;;;;25.84;82.14;100170.38;8387499;28;20046;-62
2023/09/12 17:39:22;;;;;;;8.30;5.15;;;;;;;25.34;87.28;100163.81;8417058;28;20059;-62
2023/09/12 17:43:22;;;;;;;7.28;5.47;;;;;;;24.93;91.84;100152.91;8386223;28;20091;-62
2023/09/12 17:47:23;;;;;;;9.25;5.82;;;;;;;24.53;96.58;100154.72;8383787;28;20402;-62
2023/09/12 17:51:23;;;;;;;9.32;6.13;;;;;;;24.26;100.00;100170.06;8418212;28;20119;-62
2023/09/12 17:55:24;;;;;;;10.70;6.50;;;;;;;24.15;100.00;100174.47;8385871;28;20473;-62
2023/09/12 17:59:26;;;;;;;13.52;7.97;;;;;;;24.00;100.00;100181.53;8385903;28;20513;-63
2023/09/12 18:03:27;;;;;;;12.15;7.97;;;;;;;23.76;100.00;100179.72;8386218;28;20124;-62
2023/09/12 18:07:28;;;;;;;17.83;9.55;;;;;;;23.73;100.00;100202.28;8384726;28;20494;-62
2023/09/12 18:11:29;;;;;;;18.63;10.25;;;;;;;23.68;100.00;100193.84;8385942;28;20086;-62
2023/09/12 18:15:30;;;;;;;16.40;10.70;;;;;;;23.60;100.00;100214.34;8386680;28;20040;-61
2023/09/12 18:19:30;;;;;;;18.00;11.27;;;;;;;23.58;100.00;100223.94;8383988;28;20039;-59
2023/09/12 18:23:31;;;;;;;20.15;11.63;;;;;;;23.66;100.00;100241.00;8383597;28;20341;-59
2023/09/12 18:27:31;;;;;;;18.83;12.18;;;;;;;23.58;100.00;100265.34;8383960;28;20098;-59
2023/09/12 18:31:32;;;;;;;14.77;10.25;;;;;;;23.48;100.00;100292.63;8383332;28;20046;-62
2023/09/12 18:35:32;;;;;;;3.42;1.00;;;;;;;21.69;100.00;100294.31;8385872;28;20028;-63
2023/09/12 18:39:33;;;;;;;8.45;1.48;;;;;;;21.22;100.00;100287.25;8386543;28;20033;-61